X  Κλείσε Στοιχεία αεροπορικών μετεωρολογικών δεδομένων METAR     KBDL Bradley International Airport
θερμοκρασία
21°C θερμοκρασία
13°C Σημείο δρόσου
60% Υγρασία



Ανεμος
3 M/S
7 MPH
11 KM/H
6 KTS



320°
VD
Τρέχουσες συνθήκες

Κυρίως συννεφιά Κυρίως συννεφιά
πίεση 1007.11 (hPa) - 29.74 (inHg)
Ορατότητα 10 (μίλι) - 16.1 (km)
Aεροδρόμιο
Κωδικός αεροδρομίου KBDL

Τοποθεσία: Bradley International Airport
Απόσταση: 21 (km)

Metar:
KBDL 250351Z 32006G16KT 10SM BKN090 21/13 A2974 RMK AO2 SLP070 T02110128

ώρα: 06-24-2024 11:51 pm EDT